Time;durP1;ratioP1;P1;durP2;ratioP2;P2;SDS_P1;SDS_P2;PMS_P1;PMS_P2;Temp;Humidity;BMP_temperature;BMP_pressure;BME280_temperature;BME280_humidity;BME280_pressure;Samples;Min_cycle;Max_cycle;Signal;HPM_P1;HPM_P2
2021/11/24 00:00:42;;;;;;;1999.90;999.90;;;;;;;1.72;65.03;102208.88;4908034;28;99697;-76
2021/11/24 00:03:10;;;;;;;1999.90;999.90;;;;;;;1.71;65.22;102207.94;4906621;28;96848;-78
2021/11/24 00:05:38;;;;;;;1999.90;999.90;;;;;;;1.71;65.61;102209.66;4906703;28;97466;-77
2021/11/24 00:08:07;;;;;;;1999.90;999.90;;;;;;;1.70;65.00;102203.50;4900154;28;97711;-76
2021/11/24 00:10:37;;;;;;;1999.90;999.90;;;;;;;1.71;65.38;102207.94;4903570;28;99383;-78
2021/11/24 00:13:06;;;;;;;1999.90;999.90;;;;;;;1.71;65.41;102205.31;4887845;28;97993;-76
2021/11/24 00:15:34;;;;;;;1999.90;999.90;;;;;;;1.71;65.43;102210.56;4904478;28;97483;-76
2021/11/24 00:18:02;;;;;;;1999.90;999.90;;;;;;;1.73;65.37;102202.81;4886673;28;100550;-76
2021/11/24 00:20:31;;;;;;;1999.90;999.90;;;;;;;1.72;65.02;102203.63;4870017;28;97830;-79
2021/11/24 00:22:59;;;;;;;1999.90;999.90;;;;;;;1.71;65.37;102202.69;4884931;28;96914;-78
2021/11/24 00:25:27;;;;;;;1999.90;999.90;;;;;;;1.73;65.68;102194.94;4885031;28;98904;-74
2021/11/24 00:27:57;;;;;;;1999.90;999.90;;;;;;;1.72;64.65;102201.91;4903167;28;97963;-77
2021/11/24 00:30:25;;;;;;;1999.90;999.90;;;;;;;1.65;66.12;102193.44;4902482;28;99212;-78
2021/11/24 00:32:55;;;;;;;1999.90;999.90;;;;;;;1.98;64.30;102191.72;4884586;28;97151;-77
2021/11/24 00:35:23;;;;;;;1999.90;999.90;;;;;;;1.83;64.82;102195.81;4894160;28;97680;-79
2021/11/24 00:37:51;;;;;;;1999.90;999.90;;;;;;;1.82;65.44;102198.28;4886024;28;100458;-77
2021/11/24 00:40:20;;;;;;;1999.90;999.90;;;;;;;1.81;65.39;102191.22;4886608;28;99978;-77
2021/11/24 00:42:48;;;;;;;1999.90;999.90;;;;;;;1.80;65.48;102200.78;4875021;28;97717;-77
2021/11/24 00:45:17;;;;;;;1999.90;999.90;;;;;;;1.79;64.74;102200.69;4887423;28;97722;-79
2021/11/24 00:47:46;;;;;;;1999.90;999.90;;;;;;;1.80;65.48;102200.78;4902514;28;97721;-78
2021/11/24 00:50:14;;;;;;;1999.90;999.90;;;;;;;1.80;65.45;102197.25;4888198;28;101648;-75
2021/11/24 00:52:42;;;;;;;1999.90;999.90;;;;;;;1.79;65.57;102203.31;4903617;28;96766;-77
2021/11/24 00:55:10;;;;;;;1999.90;999.90;;;;;;;1.77;65.00;102199.66;4904818;28;97842;-76
2021/11/24 00:57:39;;;;;;;1999.90;999.90;;;;;;;1.76;65.16;102196.09;4886912;28;98809;-76
2021/11/24 01:00:08;;;;;;;1999.90;999.90;;;;;;;1.78;65.81;102188.38;4905031;28;97720;-76
2021/11/24 01:02:37;;;;;;;1999.90;999.90;;;;;;;1.80;65.56;102189.38;4884080;28;97237;-76
2021/11/24 01:05:06;;;;;;;1999.90;999.90;;;;;;;1.77;65.55;102182.19;4902235;28;96727;-76
2021/11/24 01:07:35;;;;;;;1999.90;999.90;;;;;;;1.76;65.27;102182.97;4895350;28;99686;-76
2021/11/24 01:10:05;;;;;;;1999.90;999.90;;;;;;;2.07;64.36;102176.69;4912432;28;98120;-77
2021/11/24 01:12:33;;;;;;;1999.90;999.90;;;;;;;1.87;65.50;102181.22;4912796;28;97849;-77
2021/11/24 01:15:01;;;;;;;1999.90;999.90;;;;;;;1.81;65.25;102176.41;4902676;28;97111;-77
2021/11/24 01:17:29;;;;;;;1999.90;999.90;;;;;;;1.81;65.10;102181.66;4903244;28;97749;-74
2021/11/24 01:19:59;;;;;;;1999.90;999.90;;;;;;;1.80;65.26;102174.56;4885390;28;99298;-77
2021/11/24 01:22:27;;;;;;;1999.90;999.90;;;;;;;1.75;65.72;102175.91;4903118;28;97839;-76
2021/11/24 01:24:55;;;;;;;1999.90;999.90;;;;;;;1.71;65.47;102180.78;4899307;28;97391;-78
2021/11/24 01:27:25;;;;;;;1999.90;999.90;;;;;;;1.69;65.93;102174.53;4895806;28;100862;-77
2021/11/24 01:29:53;;;;;;;1999.90;999.90;;;;;;;1.71;65.49;102178.16;4887829;28;99718;-77
2021/11/24 01:32:21;;;;;;;1999.90;999.90;;;;;;;1.69;65.85;102179.78;4905839;28;97218;-76
2021/11/24 01:34:49;;;;;;;1999.90;999.90;;;;;;;1.69;65.03;102178.03;4888249;28;98262;-80
2021/11/24 01:37:19;;;;;;;1999.90;999.90;;;;;;;1.70;65.26;102177.25;4888876;28;101641;-77
2021/11/24 01:39:47;;;;;;;1999.90;999.90;;;;;;;1.74;65.64;102174.09;4896328;28;99739;-77
2021/11/24 01:42:15;;;;;;;1999.90;999.90;;;;;;;1.80;65.04;102182.44;4892887;28;96759;-76
2021/11/24 01:44:43;;;;;;;1999.90;999.90;;;;;;;1.87;64.71;102182.09;4905397;28;97564;-77
2021/11/24 01:47:12;;;;;;;1999.90;999.90;;;;;;;2.18;64.33;102174.97;4887569;28;101757;-77
2021/11/24 01:49:40;;;;;;;1999.90;999.90;;;;;;;2.01;65.13;102176.25;4904753;28;97795;-77
2021/11/24 01:52:08;;;;;;;1999.90;999.90;;;;;;;1.98;65.22;102169.84;4905213;28;98375;-76
2021/11/24 01:54:38;;;;;;;1999.90;999.90;;;;;;;1.94;65.45;102163.44;4904646;28;97767;-77
2021/11/24 01:57:06;;;;;;;1999.90;999.90;;;;;;;1.93;65.76;102172.09;4888492;28;100885;-77
2021/11/24 01:59:34;;;;;;;1999.90;999.90;;;;;;;1.92;65.18;102164.09;4888432;28;99097;-77
2021/11/24 02:02:02;;;;;;;1999.90;999.90;;;;;;;1.89;65.41;102164.78;4879074;28;97478;-76
2021/11/24 02:04:31;;;;;;;1999.90;999.90;;;;;;;1.88;64.94;102162.03;4893805;28;96961;-77
2021/11/24 02:06:59;;;;;;;1999.90;999.90;;;;;;;1.90;65.06;102163.06;4888211;28;97722;-78
2021/11/24 02:09:27;;;;;;;1999.90;999.90;;;;;;;1.89;65.22;102159.53;4904095;28;99110;-76
2021/11/24 02:11:57;;;;;;;1999.90;999.90;;;;;;;1.88;65.54;102154.16;4905830;28;97963;-76
2021/11/24 02:14:26;;;;;;;1999.90;999.90;;;;;;;1.88;66.06;102156.78;4907576;28;98079;-77
2021/11/24 02:16:54;;;;;;;1999.90;999.90;;;;;;;1.88;65.52;102151.53;4888193;28;100878;-76
2021/11/24 02:19:24;;;;;;;1999.90;999.90;;;;;;;1.86;65.56;102146.16;4890197;28;99780;-76
2021/11/24 02:21:54;;;;;;;1999.90;999.90;;;;;;;1.86;65.23;102138.31;4887911;28;97798;-76
2021/11/24 02:24:25;;;;;;;1999.90;999.90;;;;;;;1.89;65.84;102135.91;4905538;28;98018;-78
2021/11/24 02:26:53;;;;;;;1999.90;999.90;;;;;;;1.89;64.92;102129.75;4904841;28;97766;-77
2021/11/24 02:29:21;;;;;;;1999.90;999.90;;;;;;;1.85;65.10;102133.81;4893595;28;97721;-77
2021/11/24 02:31:52;;;;;;;1999.90;999.90;;;;;;;1.81;66.22;102134.41;4887675;28;97724;-77
2021/11/24 02:34:22;;;;;;;1999.90;999.90;;;;;;;1.80;65.53;102140.44;4905900;28;97169;-78
2021/11/24 02:36:50;;;;;;;1999.90;999.90;;;;;;;1.79;65.60;102143.88;4904767;28;98595;-79
2021/11/24 02:39:19;;;;;;;1999.90;999.90;;;;;;;1.80;65.75;102139.50;4905534;28;96895;-73
2021/11/24 02:41:48;;;;;;;1999.90;999.90;;;;;;;1.81;65.54;102134.41;4873381;28;96805;-78
2021/11/24 02:44:21;;;;;;;1999.90;999.90;;;;;;;1.83;65.25;102131.91;4906052;28;97140;-78
2021/11/24 02:46:49;;;;;;;1999.90;999.90;;;;;;;1.83;66.11;102127.56;4904440;28;97986;-77
2021/11/24 02:49:18;;;;;;;1999.90;999.90;;;;;;;1.82;65.75;102120.47;4906912;28;97976;-78
2021/11/24 02:51:47;;;;;;;1999.90;999.90;;;;;;;1.84;65.68;102112.72;4889182;28;96902;-78
2021/11/24 02:54:15;;;;;;;1999.90;999.90;;;;;;;1.83;65.61;102124.94;4905660;28;97005;-76
2021/11/24 02:56:45;;;;;;;1999.90;999.90;;;;;;;1.82;65.74;102117.84;4905815;28;97693;-77
2021/11/24 02:59:13;;;;;;;1999.90;999.90;;;;;;;1.82;65.22;102114.31;4905553;28;97908;-76
2021/11/24 03:01:42;;;;;;;1999.90;999.90;;;;;;;1.84;65.91;102113.66;4889891;28;98024;-77
2021/11/24 03:04:10;;;;;;;1999.90;999.90;;;;;;;1.84;65.39;102105.78;4890856;28;99749;-76
2021/11/24 03:06:38;;;;;;;1999.90;999.90;;;;;;;1.88;65.54;102110.47;4890640;28;98588;-78
2021/11/24 03:09:09;;;;;;;1999.90;999.90;;;;;;;1.89;65.34;102107.03;4916254;28;97545;-77
2021/11/24 03:11:37;;;;;;;1999.90;999.90;;;;;;;1.90;65.32;102093.13;4900067;28;97266;-77
2021/11/24 03:14:07;;;;;;;1999.90;999.90;;;;;;;1.91;65.10;102105.44;4909220;28;97026;-78
2021/11/24 03:16:35;;;;;;;1999.90;999.90;;;;;;;1.91;65.33;102096.63;4904303;28;99268;-77
2021/11/24 03:19:03;;;;;;;1999.90;999.90;;;;;;;1.92;64.57;102096.78;4915522;28;97708;-76
2021/11/24 03:21:31;;;;;;;1999.90;999.90;;;;;;;1.90;65.52;102106.25;4911220;28;96927;-74
2021/11/24 03:24:00;;;;;;;1999.90;999.90;;;;;;;1.91;65.83;102099.25;4891022;28;97130;-77
2021/11/24 03:26:28;;;;;;;1999.90;999.90;;;;;;;1.90;65.41;102095.75;4906592;28;97456;-78
2021/11/24 03:28:56;;;;;;;1999.90;999.90;;;;;;;1.91;64.98;102094.94;4905478;28;97895;-78
2021/11/24 03:31:26;;;;;;;1999.90;999.90;;;;;;;1.92;65.48;102088.91;4904490;28;97535;-78
2021/11/24 03:33:54;;;;;;;1999.90;999.90;;;;;;;1.95;65.45;102082.97;4905461;28;98001;-77
2021/11/24 03:36:22;;;;;;;1999.90;999.90;;;;;;;1.95;65.69;102081.25;4887442;28;99358;-77
2021/11/24 03:38:50;;;;;;;1999.90;999.90;;;;;;;1.95;64.86;102083.88;4878247;28;98095;-76
2021/11/24 03:41:18;;;;;;;1999.90;999.90;;;;;;;1.95;65.36;102085.59;4904867;28;96943;-77
2021/11/24 03:43:47;;;;;;;1999.90;999.90;;;;;;;1.96;64.82;102080.44;4904878;28;97325;-77
2021/11/24 03:46:16;;;;;;;1999.90;999.90;;;;;;;1.95;65.12;102081.25;4898529;28;99254;-76
2021/11/24 03:48:45;;;;;;;1999.90;999.90;;;;;;;1.95;65.38;102070.75;4904636;28;98633;-76
2021/11/24 03:51:15;;;;;;;1999.90;999.90;;;;;;;1.94;65.27;102082.06;4888099;28;97120;-76
2021/11/24 03:53:43;;;;;;;1999.90;999.90;;;;;;;1.95;64.72;102077.72;4905601;28;97964;-77
2021/11/24 03:56:13;;;;;;;1999.90;999.90;;;;;;;1.97;64.86;102073.50;4903881;28;97698;-78
2021/11/24 03:58:41;;;;;;;1999.90;999.90;;;;;;;1.95;64.72;102076.00;4891423;28;99265;-77
2021/11/24 04:01:10;;;;;;;1999.90;999.90;;;;;;;1.99;64.79;102072.81;4904601;28;97426;-78
2021/11/24 04:03:38;;;;;;;1999.90;999.90;;;;;;;1.99;65.31;102064.94;4886877;28;96838;-77
2021/11/24 04:06:08;;;;;;;1999.90;999.90;;;;;;;2.00;65.02;102073.72;4886963;28;100405;-75
2021/11/24 04:08:36;;;;;;;1999.90;999.90;;;;;;;2.28;64.39;102067.16;4903455;28;97812;-78
2021/11/24 04:11:05;;;;;;;1999.90;999.90;;;;;;;2.11;64.80;102079.03;4895801;28;97423;-77
2021/11/24 04:13:33;;;;;;;1999.90;999.90;;;;;;;2.07;65.19;102079.56;4904909;28;97198;-78
2021/11/24 04:16:01;;;;;;;1999.90;999.90;;;;;;;2.06;64.85;102069.88;4904228;28;98686;-77
2021/11/24 04:18:29;;;;;;;1999.90;999.90;;;;;;;2.06;64.87;102071.56;4888337;28;100492;-77
2021/11/24 04:20:57;;;;;;;1999.90;999.90;;;;;;;2.05;64.87;102078.53;4904751;28;97491;-79
2021/11/24 04:23:27;;;;;;;1999.90;999.90;;;;;;;2.06;65.25;102075.13;4887656;28;97018;-80
2021/11/24 04:25:55;;;;;;;1999.90;999.90;;;;;;;2.03;65.46;102073.97;4904192;28;97900;-76
2021/11/24 04:28:23;;;;;;;1999.90;999.90;;;;;;;2.02;64.88;102067.78;4904979;28;97770;-72
2021/11/24 04:30:51;;;;;;;1999.90;999.90;;;;;;;2.00;64.85;102074.63;4903788;28;97095;-75
2021/11/24 04:33:19;;;;;;;1999.90;999.90;;;;;;;1.98;65.18;102075.34;4905092;28;96824;-76
2021/11/24 04:35:48;;;;;;;1999.90;999.90;;;;;;;1.96;64.57;102074.31;4904898;28;98058;-76
2021/11/24 04:38:16;;;;;;;1999.90;999.90;;;;;;;1.95;65.63;102060.25;4904570;28;98118;-79
2021/11/24 04:40:46;;;;;;;1999.90;999.90;;;;;;;1.97;65.34;102063.91;4904654;28;97086;-77
2021/11/24 04:43:16;;;;;;;1999.90;999.90;;;;;;;1.96;65.18;102062.06;4889250;28;97721;-76
2021/11/24 04:45:44;;;;;;;1999.90;999.90;;;;;;;1.96;65.41;102066.44;4885517;28;100418;-77
2021/11/24 04:48:12;;;;;;;1999.90;999.90;;;;;;;1.96;65.34;102067.31;4874091;28;100799;-78
2021/11/24 04:50:40;;;;;;;1999.90;999.90;;;;;;;1.98;64.77;102063.09;4888063;28;97833;-75
2021/11/24 04:53:08;;;;;;;1999.90;999.90;;;;;;;1.99;65.16;102056.16;4905134;28;97287;-73
2021/11/24 04:55:36;;;;;;;1999.90;999.90;;;;;;;1.99;64.78;102057.06;4887824;28;99798;-77
2021/11/24 04:58:06;;;;;;;1999.90;999.90;;;;;;;2.02;65.23;102059.00;4880734;28;100907;-75
2021/11/24 05:00:34;;;;;;;1999.90;999.90;;;;;;;2.02;65.06;102057.28;4905825;28;96834;-75
2021/11/24 05:03:03;;;;;;;1999.90;999.90;;;;;;;2.03;64.91;102056.53;4911097;28;97333;-73
2021/11/24 05:05:32;;;;;;;1999.90;999.90;;;;;;;2.05;64.91;102057.50;4891960;28;99955;-77
2021/11/24 05:08:02;;;;;;;1999.90;999.90;;;;;;;2.05;64.68;102062.75;4891650;28;100279;-74
2021/11/24 05:10:40;;;;;;;1999.90;999.90;;;;;;;2.03;64.91;102059.16;4891292;28;97087;-79
2021/11/24 05:13:34;;;;;;;1999.90;999.90;;;;;;;2.03;65.40;102059.16;4907484;28;98897;-74
2021/11/24 05:16:05;;;;;;;1999.90;999.90;;;;;;;2.04;64.75;102057.41;4909751;28;98005;-75
2021/11/24 05:18:37;;;;;;;1999.90;999.90;;;;;;;2.03;64.82;102059.16;4890732;28;99581;-75
2021/11/24 05:21:13;;;;;;;1999.90;999.90;;;;;;;2.04;65.43;102060.94;4890255;28;97208;-76
2021/11/24 05:23:43;;;;;;;1999.90;999.90;;;;;;;2.03;64.71;102059.16;4907344;28;97746;-75
2021/11/24 05:26:14;;;;;;;1999.90;999.90;;;;;;;2.04;64.96;102053.06;4906438;28;98624;-77
2021/11/24 05:28:46;;;;;;;1999.90;999.90;;;;;;;2.04;65.30;102053.06;4906553;28;96918;-74
2021/11/24 05:31:14;;;;;;;1999.90;999.90;;;;;;;2.06;64.99;102051.47;4908358;28;96934;-74
2021/11/24 05:33:44;;;;;;;1999.90;999.90;;;;;;;2.06;64.76;102053.19;4885803;28;96855;-76
2021/11/24 05:36:12;;;;;;;1999.90;999.90;;;;;;;2.05;64.67;102047.00;4889800;28;99388;-75
2021/11/24 05:38:40;;;;;;;1999.90;999.90;;;;;;;2.03;64.72;102048.63;4907812;28;97955;-73
2021/11/24 05:41:09;;;;;;;1999.90;999.90;;;;;;;2.00;65.08;102048.38;4906484;28;97229;-77
2021/11/24 05:43:37;;;;;;;1999.90;999.90;;;;;;;1.99;65.13;102050.91;4873878;28;98077;-74
2021/11/24 05:46:14;;;;;;;1999.90;999.90;;;;;;;1.96;65.42;102051.56;4888215;28;97449;-74
2021/11/24 05:48:43;;;;;;;1999.90;999.90;;;;;;;1.95;64.75;102043.59;4904027;28;97710;-75
2021/11/24 05:51:12;;;;;;;1999.90;999.90;;;;;;;1.91;65.25;102039.81;4906232;28;96749;-73
2021/11/24 05:53:40;;;;;;;1999.90;999.90;;;;;;;1.88;65.52;102044.84;4889213;28;97177;-74
2021/11/24 05:56:08;;;;;;;1999.90;999.90;;;;;;;1.86;64.96;102045.50;4906461;28;97757;-77
2021/11/24 05:58:40;;;;;;;1999.90;999.90;;;;;;;1.84;64.98;102034.00;4884918;28;100949;-81
2021/11/24 06:01:10;;;;;;;1999.90;999.90;;;;;;;1.82;65.63;102031.25;4906828;28;97848;-78
2021/11/24 06:03:38;;;;;;;1999.90;999.90;;;;;;;1.84;65.09;102029.66;4906697;28;97029;-78
2021/11/24 06:06:06;;;;;;;1999.90;999.90;;;;;;;1.86;65.33;102032.41;4891877;28;99432;-76
2021/11/24 06:08:35;;;;;;;1999.90;999.90;;;;;;;1.88;65.77;102030.81;4888469;28;99868;-77
2021/11/24 06:11:03;;;;;;;1999.90;999.90;;;;;;;1.88;65.05;102030.81;4886393;28;97376;-78
2021/11/24 06:13:34;;;;;;;1999.90;999.90;;;;;;;1.90;65.01;102029.22;4887447;28;97021;-77
2021/11/24 06:16:03;;;;;;;1999.90;999.90;;;;;;;1.90;64.60;102034.47;4888151;28;99921;-78
2021/11/24 06:18:32;;;;;;;1999.90;999.90;;;;;;;1.89;65.43;102030.91;4905256;28;98224;-77
2021/11/24 06:21:00;;;;;;;1999.90;999.90;;;;;;;1.92;64.87;102027.63;4902789;28;99017;-78
2021/11/24 06:23:31;;;;;;;1999.90;999.90;;;;;;;1.92;65.52;102028.53;4870138;28;100796;-80
2021/11/24 06:26:02;;;;;;;1999.90;999.90;;;;;;;1.92;65.63;102028.53;4883904;28;99811;-78
2021/11/24 06:28:35;;;;;;;1999.90;999.90;;;;;;;1.90;64.98;102022.25;4904189;28;98072;-80
2021/11/24 06:31:03;;;;;;;1999.90;999.90;;;;;;;1.89;65.72;102022.16;4884127;28;98317;-76
2021/11/24 06:33:36;;;;;;;1999.90;999.90;;;;;;;1.88;64.89;102026.47;4887591;28;97455;-80
2021/11/24 06:36:04;;;;;;;1999.90;999.90;;;;;;;1.90;65.30;102023.97;4902021;28;97711;-80
2021/11/24 06:38:32;;;;;;;1999.90;999.90;;;;;;;1.91;64.85;102025.78;4886718;28;97637;-78
2021/11/24 06:41:01;;;;;;;1999.90;999.90;;;;;;;1.91;64.86;102026.69;4887682;28;97409;-78
2021/11/24 06:43:29;;;;;;;1999.90;999.90;;;;;;;1.91;65.34;102031.03;4899858;28;97912;-78
2021/11/24 06:45:58;;;;;;;1999.90;999.90;;;;;;;1.89;65.32;102032.66;4888538;28;100785;-80
2021/11/24 06:48:26;;;;;;;1999.90;999.90;;;;;;;1.88;65.34;102028.19;4905663;28;98602;-78
2021/11/24 06:50:56;;;;;;;1999.90;999.90;;;;;;;1.90;65.04;102022.25;4908703;28;97695;-77
2021/11/24 06:53:24;;;;;;;1999.90;999.90;;;;;;;1.91;65.26;102028.41;4909347;28;96953;-80
2021/11/24 06:55:53;;;;;;;1999.90;999.90;;;;;;;1.93;65.12;102029.44;4904979;28;99583;-78
2021/11/24 06:58:21;;;;;;;1999.90;999.90;;;;;;;1.92;65.18;102027.63;4893696;28;99683;-80
2021/11/24 07:00:49;;;;;;;1999.90;999.90;;;;;;;1.90;65.44;102027.50;4906565;28;97377;-80
2021/11/24 07:03:18;;;;;;;1999.90;999.90;;;;;;;1.85;66.01;102020.09;4922429;28;96801;-78
2021/11/24 07:05:46;;;;;;;1999.90;999.90;;;;;;;2.16;64.52;102021.63;4921978;28;97700;-80
2021/11/24 07:08:16;;;;;;;1999.90;999.90;;;;;;;1.99;65.14;102025.56;4897260;28;99821;-76
2021/11/24 07:10:44;;;;;;;1999.90;999.90;;;;;;;1.98;65.24;102034.22;4906948;28;98292;-76
2021/11/24 07:13:14;;;;;;;1999.90;999.90;;;;;;;1.98;64.97;102038.59;4890629;28;97430;-78
2021/11/24 07:15:43;;;;;;;1999.90;999.90;;;;;;;1.98;64.78;102033.34;4889841;28;99901;-80
2021/11/24 07:18:11;;;;;;;1999.90;999.90;;;;;;;2.30;64.47;102035.75;4871823;28;100070;-74
2021/11/24 07:20:39;;;;;;;1999.90;999.90;;;;;;;2.45;64.21;102027.31;4903524;28;97104;-74
2021/11/24 07:23:07;;;;;;;1999.90;999.90;;;;;;;2.23;64.47;102026.53;4885707;28;97137;-73
2021/11/24 07:25:37;;;;;;;1999.90;999.90;;;;;;;2.13;64.86;102024.91;4902892;28;97399;-78
2021/11/24 07:28:06;;;;;;;1999.90;999.90;;;;;;;2.11;65.49;102025.59;4903442;28;98069;-74
2021/11/24 07:30:34;;;;;;;1999.90;999.90;;;;;;;2.09;64.91;102028.09;4886787;28;98312;-78
2021/11/24 07:33:02;;;;;;;1999.90;999.90;;;;;;;2.07;64.93;102028.78;4886837;28;97423;-78
2021/11/24 07:35:32;;;;;;;1999.90;999.90;;;;;;;2.03;65.20;102027.63;4903855;28;97089;-75
2021/11/24 07:38:01;;;;;;;1999.90;999.90;;;;;;;2.01;65.22;102034.47;4886299;28;99161;-73
2021/11/24 07:40:29;;;;;;;1999.90;999.90;;;;;;;1.98;65.02;102031.59;4885630;28;98197;-76
2021/11/24 07:42:59;;;;;;;1999.90;999.90;;;;;;;1.98;65.28;102038.59;4870576;28;97338;-76
2021/11/24 07:45:27;;;;;;;1999.90;999.90;;;;;;;1.96;65.17;102034.94;4903253;28;99122;-77
2021/11/24 07:47:55;;;;;;;1999.90;999.90;;;;;;;1.93;65.04;102027.72;4902427;28;97677;-76
2021/11/24 07:50:24;;;;;;;1999.90;999.90;;;;;;;1.94;64.74;102021.69;4902367;28;97270;-75
2021/11/24 07:52:52;;;;;;;1999.90;999.90;;;;;;;1.94;65.08;102024.31;4903433;28;97911;-77
2021/11/24 07:55:20;;;;;;;1999.90;999.90;;;;;;;1.93;64.83;102025.09;4904007;28;97658;-79
2021/11/24 07:57:49;;;;;;;1999.90;999.90;;;;;;;2.23;64.17;102028.22;4906237;28;98136;-76
2021/11/24 08:00:18;;;;;;;1999.90;999.90;;;;;;;2.07;64.80;102021.78;4907058;28;97776;-80
2021/11/24 08:02:47;;;;;;;1999.90;999.90;;;;;;;2.05;64.84;102026.00;4886568;28;98256;-78
2021/11/24 08:05:15;;;;;;;1999.90;999.90;;;;;;;2.06;64.59;102013.81;4903828;28;97769;-77
2021/11/24 08:07:54;;;;;;;1999.90;999.90;;;;;;;2.04;65.31;102015.41;4887848;28;98948;-78
2021/11/24 08:10:23;;;;;;;1999.90;999.90;;;;;;;2.04;65.02;102015.41;4871325;28;97293;-79
2021/11/24 08:12:52;;;;;;;1999.90;999.90;;;;;;;2.04;64.83;102018.94;4871530;28;97220;-77
2021/11/24 08:15:21;;;;;;;1999.90;999.90;;;;;;;2.04;65.60;102013.69;4886565;28;100519;-77
2021/11/24 08:17:50;;;;;;;1999.90;999.90;;;;;;;2.03;64.82;102006.63;4904012;28;98743;-77
2021/11/24 08:20:18;;;;;;;1999.90;999.90;;;;;;;2.34;63.74;101998.41;4885704;28;98291;-76
2021/11/24 08:22:46;;;;;;;1999.90;999.90;;;;;;;2.13;64.95;101993.41;4904153;28;97322;-78
2021/11/24 08:25:15;;;;;;;1999.90;999.90;;;;;;;2.09;64.53;101998.34;4886071;28;100638;-78
2021/11/24 08:27:43;;;;;;;1999.90;999.90;;;;;;;2.07;65.15;101999.91;4885306;28;99196;-76
2021/11/24 08:30:12;;;;;;;1999.90;999.90;;;;;;;2.04;64.46;101995.31;4886552;28;97677;-77
2021/11/24 08:32:42;;;;;;;1999.90;999.90;;;;;;;2.35;63.63;101989.72;4901861;28;97538;-77
2021/11/24 08:35:11;;;;;;;1999.90;999.90;;;;;;;2.17;64.15;101994.56;4902898;28;98947;-77
2021/11/24 08:37:39;;;;;;;1999.90;999.90;;;;;;;2.14;65.02;101992.59;4889718;28;98942;-75
2021/11/24 08:40:09;;;;;;;1999.90;999.90;;;;;;;2.10;64.47;101998.44;4906858;28;97997;-77
2021/11/24 08:42:38;;;;;;;1999.90;999.90;;;;;;;2.09;64.94;101993.09;4901067;28;97674;-76
2021/11/24 08:45:08;;;;;;;1999.90;999.90;;;;;;;2.06;64.40;101991.09;4906893;28;98207;-77
2021/11/24 08:47:36;;;;;;;1999.90;999.90;;;;;;;2.06;64.34;101987.56;4888888;28;98560;-76
2021/11/24 08:50:09;;;;;;;1999.90;999.90;;;;;;;2.03;65.05;101984.72;4888479;28;97197;-76
2021/11/24 08:52:39;;;;;;;1999.90;999.90;;;;;;;2.06;65.10;101993.72;4907876;28;97594;-79
2021/11/24 08:55:12;;;;;;;1999.90;999.90;;;;;;;2.12;64.28;101991.59;4907126;28;98730;-77
2021/11/24 08:57:40;;;;;;;1999.90;999.90;;;;;;;2.15;64.78;101976.06;4873412;28;99067;-76
2021/11/24 09:00:12;;;;;;;1999.90;999.90;;;;;;;2.18;64.44;101983.28;4897861;28;97949;-76
2021/11/24 09:02:41;;;;;;;1999.90;999.90;;;;;;;2.19;64.35;101980.75;4876888;28;97969;-77
2021/11/24 09:05:12;;;;;;;1999.90;999.90;;;;;;;2.23;63.96;101975.72;4888387;28;100521;-76
2021/11/24 09:07:41;;;;;;;1999.90;999.90;;;;;;;2.24;64.32;101977.56;4885532;28;100931;-76
2021/11/24 09:10:10;;;;;;;1999.90;999.90;;;;;;;2.24;64.31;101975.81;4906246;28;97113;-76
2021/11/24 09:12:41;;;;;;;1999.90;999.90;;;;;;;2.26;63.84;101968.03;4889090;28;97842;-80
2021/11/24 09:15:11;;;;;;;1999.90;999.90;;;;;;;2.28;64.57;101979.56;4885092;28;99214;-79
2021/11/24 09:18:00;;;;;;;1999.90;999.90;;;;;;;2.29;64.46;101976.16;4887892;28;99171;-75
2021/11/24 09:20:29;;;;;;;1999.90;999.90;;;;;;;2.31;64.02;101978.09;4871604;28;97094;-76
2021/11/24 09:22:58;;;;;;;1999.90;999.90;;;;;;;2.33;63.99;101975.59;4902644;28;97023;-77
2021/11/24 09:25:35;;;;;;;1999.90;999.90;;;;;;;2.35;64.06;101977.50;4887989;28;99829;-76
2021/11/24 09:28:09;;;;;;;1999.90;999.90;;;;;;;2.38;64.43;101971.59;4904165;28;98003;-77
2021/11/24 09:30:38;;;;;;;1999.90;999.90;;;;;;;2.42;64.13;101971.00;4871977;28;98200;-79
2021/11/24 09:33:08;;;;;;;1999.90;999.90;;;;;;;2.46;63.58;101967.78;4905850;28;97996;-76
2021/11/24 09:35:37;;;;;;;1999.90;999.90;;;;;;;2.48;64.10;101974.06;4888298;28;99237;-77
2021/11/24 09:38:06;;;;;;;1999.90;999.90;;;;;;;2.51;63.89;101971.69;4894491;28;99870;-79
2021/11/24 09:40:35;;;;;;;1999.90;999.90;;;;;;;2.55;63.79;101973.69;4887845;28;97757;-76
2021/11/24 09:43:05;;;;;;;1999.90;999.90;;;;;;;2.56;63.70;101967.66;4905648;28;96779;-76
2021/11/24 09:45:34;;;;;;;1999.90;999.90;;;;;;;2.57;63.87;101970.38;4887396;28;98241;-77
2021/11/24 09:48:03;;;;;;;1999.90;999.90;;;;;;;2.60;63.60;101964.44;4906693;28;98969;-76
2021/11/24 09:50:33;;;;;;;1999.90;999.90;;;;;;;2.64;63.69;101969.09;4889834;28;97797;-75
2021/11/24 09:53:04;;;;;;;1999.90;999.90;;;;;;;2.93;62.55;101959.84;4887526;28;97409;-75
2021/11/24 09:55:36;;;;;;;1999.90;999.90;;;;;;;2.84;63.40;101960.91;4907073;28;97969;-75
2021/11/24 09:58:05;;;;;;;1999.90;999.90;;;;;;;2.85;62.90;101954.88;4887608;28;99005;-77
2021/11/24 10:00:34;;;;;;;1999.90;999.90;;;;;;;2.87;63.32;101950.66;4905915;28;96873;-75
2021/11/24 10:03:03;;;;;;;1999.90;999.90;;;;;;;2.85;63.52;101950.53;4906057;28;97072;-76
2021/11/24 10:05:33;;;;;;;1999.90;999.90;;;;;;;2.84;63.21;101947.78;4894297;28;100304;-75
2021/11/24 10:08:32;;;;;;;1999.90;999.90;;;;;;;2.81;63.30;101945.88;4887875;28;99616;-75
2021/11/24 10:11:01;;;;;;;1999.90;999.90;;;;;;;2.80;63.56;101943.13;4900396;28;98474;-75
2021/11/24 10:13:29;;;;;;;1999.90;999.90;;;;;;;2.82;63.60;101938.91;4906105;28;97424;-78
2021/11/24 10:15:58;;;;;;;1999.90;999.90;;;;;;;2.85;63.42;101939.09;4893438;28;99255;-75
2021/11/24 10:18:29;;;;;;;1999.90;999.90;;;;;;;2.88;63.12;101934.06;4903862;28;97655;-75
2021/11/24 10:20:58;;;;;;;1999.90;999.90;;;;;;;2.87;62.98;101935.78;4887064;28;97883;-75
2021/11/24 10:23:34;;;;;;;1999.90;999.90;;;;;;;2.86;63.07;101930.41;4887552;28;97306;-77
2021/11/24 10:26:22;;;;;;;1999.90;999.90;;;;;;;2.85;62.91;101933.84;4903385;28;97126;-76
2021/11/24 10:29:07;;;;;;;1999.90;999.90;;;;;;;2.84;63.02;101926.75;4887811;28;96977;-75
2021/11/24 10:31:38;;;;;;;1999.90;999.90;;;;;;;2.84;63.42;101921.50;4893346;28;98203;-77
2021/11/24 10:34:16;;;;;;;1999.90;999.90;;;;;;;2.83;62.63;101919.69;4904643;28;97820;-77
2021/11/24 10:36:52;;;;;;;1999.90;999.90;;;;;;;2.82;62.87;101917.88;4888718;28;100561;-74
2021/11/24 10:39:24;;;;;;;1999.90;999.90;;;;;;;2.80;63.25;101909.84;4903886;28;97898;-75
2021/11/24 10:41:52;;;;;;;1999.90;999.90;;;;;;;2.80;62.88;101909.84;4892639;28;97108;-77
2021/11/24 10:44:28;;;;;;;1999.90;999.90;;;;;;;2.78;62.74;101902.69;4882562;28;96848;-76
2021/11/24 10:46:58;;;;;;;1999.90;999.90;;;;;;;2.79;62.79;101901.88;4905902;28;98207;-76
2021/11/24 10:49:35;;;;;;;1999.90;999.90;;;;;;;2.79;62.68;101896.59;4872043;28;98872;-77
2021/11/24 10:52:19;;;;;;;1999.90;999.90;;;;;;;2.79;62.49;101892.28;4905950;28;97584;-78
2021/11/24 10:55:11;;;;;;;1999.90;999.90;;;;;;;2.82;62.48;101888.97;4893875;28;97735;-79
2021/11/24 10:57:40;;;;;;;1999.90;999.90;;;;;;;2.88;62.75;101881.47;4909215;28;97343;-75
2021/11/24 11:00:11;;;;;;;1999.90;999.90;;;;;;;2.89;62.73;101868.44;4908135;28;97874;-77
2021/11/24 11:02:40;;;;;;;1999.90;999.90;;;;;;;2.93;62.78;101880.09;4892067;28;96996;-76
2021/11/24 11:05:17;;;;;;;1999.90;999.90;;;;;;;3.22;61.38;101868.13;4891695;28;96909;-77